Terminal Aerodrome Forecast
Issued by NWS St Louis, MO

Home | Current Version | Previous Version | Text Only | Print | Product List | Glossary On
Versions: 1 2 3 4 5 6 7 8 9 10 11 12 13 14 15 16 17 18 19 20 21 22 23 24 25 26 27 28 29 30
000
FTUS43 KLSX 132320
TAFSTL
TAF
KSTL 132320Z 1400/1506 07007KT 6SM -FZRA OVC015
     FM140200 07007KT 5SM BR VCSH OVC008
     FM140800 06005KT 3SM -FZRA BR OVC005
     FM141300 01005KT 3SM BR VCSH OVC004
     FM141600 36006KT 5SM BR OVC008=

USA.gov is the U.S. government's official web portal to all federal, state and local government web resources and services.